createdAt,value
2019-02-12T00:01:09.175Z,100706.17
2019-02-12T00:03:37.638Z,100710.05
2019-02-12T00:06:05.874Z,100720.35
2019-02-12T00:08:34.114Z,100724.16
2019-02-12T00:11:02.358Z,100738.20
2019-02-12T00:13:30.585Z,100735.53
2019-02-12T00:15:58.819Z,100743.88
2019-02-12T00:18:27.068Z,100757.37
2019-02-12T00:20:55.542Z,100757.37
2019-02-12T00:23:24.015Z,100757.06
2019-02-12T00:25:52.250Z,100751.66
2019-02-12T00:28:20.489Z,100760.89
2019-02-12T00:30:48.713Z,100753.69
2019-02-12T00:33:17.181Z,100752.37
2019-02-12T00:35:45.419Z,100752.69
2019-02-12T00:38:13.880Z,100745.68
2019-02-12T00:40:42.344Z,100738.73
2019-02-12T00:43:10.810Z,100733.41
2019-02-12T00:45:39.268Z,100723.88
2019-02-12T00:48:07.524Z,100723.73
2019-02-12T00:50:35.976Z,100723.73
2019-02-12T00:53:04.220Z,100743.17
2019-02-12T00:55:32.686Z,100738.32
2019-02-12T00:58:00.930Z,100743.55
2019-02-12T01:00:29.164Z,100746.23
2019-02-12T01:02:57.412Z,100757.31
2019-02-12T01:07:58.295Z,100767.39
2019-02-12T01:10:26.843Z,100753.28
2019-02-12T01:12:55.071Z,100771.38
2019-02-12T01:15:23.605Z,100768.72
2019-02-12T01:17:51.890Z,100768.72
2019-02-12T01:20:20.141Z,100763.00
2019-02-12T01:22:48.449Z,100771.67
2019-02-12T01:25:16.688Z,100771.67
2019-02-12T01:27:44.919Z,100770.67
2019-02-12T01:30:16.828Z,100773.73
2019-02-12T01:32:45.448Z,100777.20
2019-02-12T01:35:14.018Z,100777.20
2019-02-12T01:37:42.518Z,100775.91
2019-02-12T01:40:12.083Z,100775.91
2019-02-12T01:42:40.691Z,100777.08
2019-02-12T01:45:10.667Z,100756.05
2019-02-12T01:47:38.899Z,100778.24
2019-02-12T01:50:09.539Z,100778.24
2019-02-12T01:52:37.768Z,100778.87
2019-02-12T01:55:06.279Z,100755.02
2019-02-12T01:57:34.565Z,100759.48
2019-02-12T02:00:02.811Z,100764.73
2019-02-12T02:02:31.043Z,100775.83
2019-02-12T02:04:59.590Z,100774.80
2019-02-12T02:07:27.818Z,100774.80
2019-02-12T02:09:56.054Z,100776.20
2019-02-12T02:12:24.284Z,100776.20
2019-02-12T02:14:52.515Z,100770.87
2019-02-12T02:17:20.974Z,100770.87
2019-02-12T02:19:49.434Z,100779.03
2019-02-12T02:22:17.939Z,100764.73
2019-02-12T02:24:46.180Z,100757.31
2019-02-12T02:27:14.409Z,100775.96
2019-02-12T02:29:42.639Z,100778.89
2019-02-12T02:32:11.157Z,100778.64
2019-02-12T02:34:39.657Z,100780.55
2019-02-12T02:37:08.114Z,100772.77
2019-02-12T02:39:36.601Z,100774.92
2019-02-12T02:42:05.080Z,100788.31
2019-02-12T02:44:33.301Z,100788.31
2019-02-12T02:47:01.840Z,100781.58
2019-02-12T02:49:30.070Z,100787.81
2019-02-12T02:51:58.321Z,100776.08
2019-02-12T02:54:26.550Z,100776.08
2019-02-12T02:56:54.791Z,100788.46
2019-02-12T02:59:23.030Z,100791.37
2019-02-12T03:01:51.275Z,100791.37
2019-02-12T03:04:19.514Z,100801.44
2019-02-12T03:06:48.069Z,100826.59
2019-02-12T03:09:16.294Z,100826.59
2019-02-12T03:11:44.537Z,100808.20
2019-02-12T03:14:13.100Z,100830.75
2019-02-12T03:16:41.346Z,100830.75
2019-02-12T03:19:09.580Z,100840.56
2019-02-12T03:21:37.856Z,100840.56
2019-02-12T03:24:06.084Z,100838.02
2019-02-12T03:26:34.329Z,100845.81
2019-02-12T03:29:02.558Z,100845.81
2019-02-12T03:31:31.141Z,100852.42
2019-02-12T03:33:59.379Z,100852.42
2019-02-12T03:36:27.625Z,100843.83
2019-02-12T03:38:55.869Z,100850.71
2019-02-12T03:41:24.348Z,100836.56
2019-02-12T03:43:52.580Z,100836.56
2019-02-12T03:46:20.926Z,100839.05
2019-02-12T03:48:49.164Z,100839.05
2019-02-12T03:51:17.627Z,100828.75
2019-02-12T03:53:45.870Z,100822.59
2019-02-12T03:56:14.429Z,100832.05
2019-02-12T03:58:42.662Z,100831.44
2019-02-12T04:01:11.280Z,100840.00
2019-02-12T04:03:39.520Z,100839.63
2019-02-12T04:06:07.851Z,100845.38
2019-02-12T04:08:36.095Z,100845.38
2019-02-12T04:11:04.334Z,100838.73
2019-02-12T04:13:32.587Z,100846.13
2019-02-12T04:16:00.818Z,100846.13
2019-02-12T04:18:29.063Z,100836.07
2019-02-12T04:20:57.601Z,100838.52
2019-02-12T04:23:26.088Z,100808.02
2019-02-12T04:25:54.374Z,100808.02
2019-02-12T04:28:22.617Z,100812.47
2019-02-12T04:30:50.929Z,100828.21
2019-02-12T04:33:19.499Z,100826.94
2019-02-12T04:35:47.736Z,100829.48
2019-02-12T04:38:15.985Z,100812.76
2019-02-12T04:40:44.220Z,100812.76
2019-02-12T04:43:12.711Z,100819.91
2019-02-12T04:45:40.999Z,100833.95
2019-02-12T04:48:09.242Z,100823.25
2019-02-12T04:50:37.751Z,100838.27
2019-02-12T04:53:06.224Z,100835.72
2019-02-12T04:55:34.464Z,100839.44
2019-02-12T04:58:02.706Z,100844.27
2019-02-12T05:00:30.962Z,100837.73
2019-02-12T05:02:59.446Z,100837.73
2019-02-12T05:05:28.024Z,100839.63
2019-02-12T05:07:56.272Z,100857.36
2019-02-12T05:10:28.049Z,100861.80
2019-02-12T05:12:56.293Z,100867.66
2019-02-12T05:15:24.537Z,100868.69
2019-02-12T05:17:52.770Z,100841.01
2019-02-12T05:20:21.012Z,100850.06
2019-02-12T05:22:49.243Z,100850.06
2019-02-12T05:25:17.826Z,100872.78
2019-02-12T05:27:46.139Z,100862.07
2019-02-12T05:30:14.960Z,100868.06
2019-02-12T05:32:43.190Z,100869.85
2019-02-12T05:35:11.455Z,100872.89
2019-02-12T05:37:39.925Z,100872.89
2019-02-12T05:40:10.012Z,100864.72
2019-02-12T05:42:38.643Z,100876.33
2019-02-12T05:45:10.025Z,100872.98
2019-02-12T05:47:38.569Z,100887.42
2019-02-12T05:50:15.138Z,100867.10
2019-02-12T05:52:53.213Z,100874.02
2019-02-12T05:55:13.640Z,100865.11
2019-02-12T05:57:41.881Z,100834.44
2019-02-12T06:00:19.808Z,100834.44
2019-02-12T06:02:48.036Z,100839.32
2019-02-12T06:05:19.447Z,100861.97
2019-02-12T06:07:47.925Z,100868.86
2019-02-12T06:10:16.217Z,100871.78
2019-02-12T06:12:44.455Z,100871.78
2019-02-12T06:15:12.721Z,100878.02
2019-02-12T06:17:40.936Z,100878.02
2019-02-12T06:20:09.248Z,100875.74
2019-02-12T06:22:37.793Z,100886.08
2019-02-12T06:25:08.149Z,100888.38
2019-02-12T06:27:37.013Z,100899.75
2019-02-12T06:30:08.508Z,100899.75
2019-02-12T06:32:36.772Z,100911.35
2019-02-12T06:35:07.675Z,100911.35
2019-02-12T06:37:36.133Z,100890.45
2019-02-12T06:40:07.322Z,100908.59
2019-02-12T06:42:35.563Z,100909.25
2019-02-12T06:45:05.247Z,100886.25
2019-02-12T06:47:33.601Z,100886.25
2019-02-12T06:50:01.829Z,100915.37
2019-02-12T06:52:30.998Z,100921.52
2019-02-12T06:54:59.543Z,100921.52
2019-02-12T06:57:27.769Z,100925.98
2019-02-12T06:59:56.016Z,100926.51
2019-02-12T07:03:01.003Z,100935.56
2019-02-12T07:05:29.501Z,100947.03
2019-02-12T07:10:27.021Z,100948.07
2019-02-12T07:13:03.246Z,100947.93
2019-02-12T07:15:31.400Z,100949.34
2019-02-12T07:18:14.814Z,100947.93
2019-02-12T07:20:46.227Z,100947.93
2019-02-12T07:23:37.381Z,100959.47
2019-02-12T07:26:14.767Z,100964.33
2019-02-12T07:28:54.838Z,100966.64
2019-02-12T07:31:42.466Z,100966.64
2019-02-12T07:34:16.677Z,100973.02
2019-02-12T07:37:07.269Z,100972.73
2019-02-12T07:39:44.514Z,100978.73
2019-02-12T07:42:18.685Z,100979.73
2019-02-12T07:45:09.634Z,100979.73
2019-02-12T07:47:44.009Z,100989.97
2019-02-12T07:50:30.340Z,100984.97
2019-02-12T07:53:01.747Z,100991.76
2019-02-12T07:55:38.925Z,101014.88
2019-02-12T07:58:27.123Z,101018.98
2019-02-12T08:00:58.576Z,101020.50
2019-02-12T08:03:55.317Z,101025.59
2019-02-12T08:06:32.513Z,101026.14
2019-02-12T08:09:29.749Z,101029.22
2019-02-12T08:12:03.842Z,101008.61
2019-02-12T08:14:40.992Z,101033.80
2019-02-12T08:17:15.358Z,101035.62
2019-02-12T08:19:46.760Z,101035.62
2019-02-12T08:22:27.126Z,101040.62
2019-02-12T08:25:00.954Z,101046.89
2019-02-12T08:27:41.214Z,101044.09
2019-02-12T08:30:30.495Z,101044.09
2019-02-12T08:33:31.128Z,101046.05
2019-02-12T08:36:08.228Z,101052.17
2019-02-12T08:39:06.843Z,101020.47
2019-02-12T08:42:09.675Z,101047.84
2019-02-12T08:44:41.071Z,101049.25
2019-02-12T08:47:27.370Z,101052.55
2019-02-12T08:50:07.837Z,101059.20
2019-02-12T08:52:53.812Z,101078.89
2019-02-12T08:55:25.453Z,101078.89
2019-02-12T08:58:11.276Z,101069.58
2019-02-12T09:01:00.616Z,101081.81
2019-02-12T09:03:37.988Z,101073.41
2019-02-12T09:06:15.022Z,101074.68
2019-02-12T09:08:52.120Z,101061.63
2019-02-12T09:11:32.553Z,101073.91
2019-02-12T09:14:06.906Z,101068.42
2019-02-12T09:16:40.807Z,101074.70
2019-02-12T09:19:20.727Z,101075.59
2019-02-12T09:22:22.193Z,101066.14
2019-02-12T09:25:08.425Z,101070.62
2019-02-12T09:28:00.654Z,101070.89
2019-02-12T09:30:57.575Z,101047.49
2019-02-12T09:33:51.281Z,101047.49
2019-02-12T09:36:25.373Z,101085.20
2019-02-12T09:38:59.672Z,101085.20
2019-02-12T09:41:31.179Z,101088.62
2019-02-12T09:44:08.539Z,101088.62
2019-02-12T09:46:48.597Z,101093.63
2019-02-12T09:49:25.812Z,101105.25
2019-02-12T09:52:13.438Z,101102.31
2019-02-12T09:54:44.846Z,101100.29
2019-02-12T09:57:27.312Z,101096.73
2019-02-12T10:00:08.290Z,101102.17
2019-02-12T10:02:42.407Z,101108.18
2019-02-12T10:05:28.573Z,101104.86
2019-02-12T10:08:33.065Z,101099.38
2019-02-12T10:11:16.447Z,101097.49
2019-02-12T10:13:47.854Z,101107.20
2019-02-12T10:16:40.328Z,101112.45
2019-02-12T10:19:26.923Z,101114.04
2019-02-12T10:22:31.127Z,101116.08
2019-02-12T10:25:17.888Z,101119.28
2019-02-12T10:27:52.092Z,101122.34
2019-02-12T10:30:29.136Z,101120.16
2019-02-12T10:32:57.597Z,101127.45
2019-02-12T10:35:26.067Z,101128.59
2019-02-12T10:37:54.302Z,101138.45
2019-02-12T10:40:22.547Z,101135.00
2019-02-12T10:42:50.777Z,101143.56
2019-02-12T10:45:19.239Z,101142.02
2019-02-12T10:47:47.521Z,101141.39
2019-02-12T10:50:15.947Z,101148.67
2019-02-12T10:52:44.175Z,101145.36
2019-02-12T10:55:12.678Z,101152.53
2019-02-12T10:57:40.914Z,101157.88
2019-02-12T11:00:12.326Z,101160.58
2019-02-12T11:02:40.560Z,101149.05
2019-02-12T11:05:09.048Z,101146.63
2019-02-12T11:07:37.277Z,101156.09
2019-02-12T11:10:08.063Z,101157.50
2019-02-12T11:12:36.294Z,101158.63
2019-02-12T11:15:06.873Z,101157.12
2019-02-12T11:17:35.118Z,101156.61
2019-02-12T11:20:04.228Z,101156.61
2019-02-12T11:22:32.457Z,101165.17
2019-02-12T11:25:01.017Z,101153.54
2019-02-12T11:27:29.483Z,101158.52
2019-02-12T11:29:57.726Z,101151.75
2019-02-12T11:32:25.962Z,101161.72
2019-02-12T11:34:54.247Z,101158.16
2019-02-12T11:37:22.482Z,101158.38
2019-02-12T11:39:50.817Z,101156.47
2019-02-12T11:42:19.054Z,101159.81
2019-02-12T11:44:47.295Z,101156.36
2019-02-12T11:47:15.526Z,101152.27
2019-02-12T11:49:43.991Z,101151.35
2019-02-12T11:52:12.236Z,101139.98
2019-02-12T11:54:43.839Z,101134.86
2019-02-12T11:57:10.429Z,101138.29
2019-02-12T11:59:38.657Z,101140.73
2019-02-12T12:02:06.903Z,101142.23
2019-02-12T12:04:35.144Z,101144.41
2019-02-12T12:07:03.402Z,101144.02
2019-02-12T12:09:31.630Z,101139.55
2019-02-12T12:11:59.871Z,101139.28
2019-02-12T12:14:28.101Z,101132.85
2019-02-12T12:16:56.594Z,101130.55
2019-02-12T12:19:25.051Z,101134.38
2019-02-12T12:21:53.536Z,101133.48
2019-02-12T12:24:21.997Z,101130.16
2019-02-12T12:26:50.239Z,101131.78
2019-02-12T12:29:18.467Z,101139.84
2019-02-12T12:31:46.945Z,101143.68
2019-02-12T12:34:15.185Z,101134.20
2019-02-12T12:36:43.426Z,101129.22
2019-02-12T12:39:11.891Z,101145.48
2019-02-12T12:41:40.356Z,101133.05
2019-02-12T12:44:08.613Z,101143.67
2019-02-12T12:46:36.842Z,101133.56
2019-02-12T12:49:05.080Z,101135.67
2019-02-12T12:51:33.549Z,101132.09
2019-02-12T12:54:01.779Z,101133.00
2019-02-12T12:56:30.018Z,101134.92
2019-02-12T12:58:58.278Z,101137.55
2019-02-12T13:01:26.524Z,101139.34
2019-02-12T13:03:54.753Z,101143.56
2019-02-12T13:06:22.984Z,101145.10
2019-02-12T13:08:51.517Z,101151.42
2019-02-12T13:11:19.760Z,101154.50
2019-02-12T13:13:48.038Z,101148.87
2019-02-12T13:16:16.556Z,101148.11
2019-02-12T13:18:44.798Z,101138.50
2019-02-12T13:21:13.037Z,101140.67
2019-02-12T13:23:41.592Z,101142.66
2019-02-12T13:26:09.831Z,101144.19
2019-02-12T13:28:38.352Z,101142.00
2019-02-12T13:31:06.754Z,101145.34
2019-02-12T13:33:35.001Z,101148.16
2019-02-12T13:36:03.235Z,101146.51
2019-02-12T13:38:31.488Z,101147.70
2019-02-12T13:40:59.739Z,101145.80
2019-02-12T13:43:28.317Z,101152.20
2019-02-12T13:45:56.803Z,101142.21
2019-02-12T13:48:25.052Z,101148.36
2019-02-12T13:50:53.296Z,101152.03
2019-02-12T13:53:21.838Z,101146.52
2019-02-12T13:55:50.085Z,101144.47
2019-02-12T13:58:18.332Z,101141.63
2019-02-12T14:00:46.871Z,101132.72
2019-02-12T14:03:22.313Z,101136.17
2019-02-12T14:05:45.125Z,101137.91
2019-02-12T14:08:13.413Z,101137.74
2019-02-12T14:10:41.659Z,101142.23
2019-02-12T14:13:10.205Z,101152.61
2019-02-12T14:15:38.436Z,101147.73
2019-02-12T14:18:06.672Z,101151.97
2019-02-12T14:20:34.921Z,101152.25
2019-02-12T14:23:03.154Z,101150.72
2019-02-12T14:25:31.399Z,101147.82
2019-02-12T14:28:00.694Z,101149.22
2019-02-12T14:30:29.006Z,101154.35
2019-02-12T14:32:57.182Z,101146.34
2019-02-12T14:35:25.423Z,101144.16
2019-02-12T14:37:53.661Z,101148.51
2019-02-12T14:40:21.909Z,101143.12
2019-02-12T14:42:50.384Z,101141.45
2019-02-12T14:45:19.522Z,101142.28
2019-02-12T14:47:47.928Z,101149.41
2019-02-12T14:50:20.921Z,101157.86
2019-02-12T14:52:49.162Z,101151.59
2019-02-12T14:55:17.647Z,101155.72
2019-02-12T14:57:45.889Z,101158.98
2019-02-12T15:00:18.181Z,101160.91
2019-02-12T15:02:46.409Z,101156.87
2019-02-12T15:05:14.651Z,101165.59
2019-02-12T15:07:43.118Z,101160.98
2019-02-12T15:10:12.809Z,101154.38
2019-02-12T15:12:41.043Z,101153.60
2019-02-12T15:15:10.448Z,101158.73
2019-02-12T15:17:38.681Z,101167.45
2019-02-12T15:20:11.785Z,101170.05
2019-02-12T15:22:40.024Z,101179.27
2019-02-12T15:25:12.378Z,101175.44
2019-02-12T15:27:40.691Z,101178.55
2019-02-12T15:30:14.298Z,101179.19
2019-02-12T15:32:42.532Z,101176.23
2019-02-12T15:35:11.245Z,101166.77
2019-02-12T15:37:39.713Z,101176.63
2019-02-12T15:40:10.959Z,101169.58
2019-02-12T15:42:39.192Z,101173.94
2019-02-12T15:45:10.582Z,101174.06
2019-02-12T15:47:38.814Z,101175.86
2019-02-12T15:50:09.608Z,101176.23
2019-02-12T15:52:37.844Z,101178.93
2019-02-12T15:55:09.234Z,101178.19
2019-02-12T15:57:37.716Z,101176.53
2019-02-12T16:00:09.639Z,101173.84
2019-02-12T16:02:38.107Z,101182.44
2019-02-12T16:05:10.406Z,101181.78
2019-02-12T16:07:38.842Z,101183.35
2019-02-12T16:10:16.877Z,101180.15
2019-02-12T16:12:46.535Z,101183.86
2019-02-12T16:15:16.647Z,101192.68
2019-02-12T16:17:44.884Z,101198.81
2019-02-12T16:20:13.190Z,101198.18
2019-02-12T16:22:41.663Z,101200.86
2019-02-12T16:25:12.504Z,101206.48
2019-02-12T16:27:40.753Z,101202.90
2019-02-12T16:30:11.786Z,101197.39
2019-02-12T16:32:40.031Z,101210.19
2019-02-12T16:35:11.243Z,101209.05
2019-02-12T16:37:39.483Z,101209.17
2019-02-12T16:40:10.556Z,101210.72
2019-02-12T16:42:39.042Z,101212.38
2019-02-12T16:45:10.289Z,101216.73
2019-02-12T16:47:38.526Z,101208.80
2019-02-12T16:50:08.099Z,101215.45
2019-02-12T16:52:36.340Z,101209.17
2019-02-12T16:55:06.411Z,101214.55
2019-02-12T16:57:34.657Z,101212.12
2019-02-12T17:00:04.136Z,101217.36
2019-02-12T17:02:32.378Z,101221.20
2019-02-12T17:05:00.845Z,101222.73
2019-02-12T17:07:29.170Z,101226.82
2019-02-12T17:09:57.640Z,101241.27
2019-02-12T17:12:25.894Z,101246.01
2019-02-12T17:14:54.132Z,101249.33
2019-02-12T17:17:22.382Z,101254.06
2019-02-12T17:19:50.615Z,101252.27
2019-02-12T17:22:18.866Z,101255.20
2019-02-12T17:24:47.102Z,101256.87
2019-02-12T17:27:15.341Z,101255.84
2019-02-12T17:29:43.813Z,101260.34
2019-02-12T17:32:12.279Z,101263.66
2019-02-12T17:34:40.558Z,101263.13
2019-02-12T17:37:08.802Z,101263.52
2019-02-12T17:39:37.270Z,101258.40
2019-02-12T17:42:05.522Z,101265.06
2019-02-12T17:44:33.758Z,101266.59
2019-02-12T17:47:02.001Z,101276.07
2019-02-12T17:49:30.466Z,101286.55
2019-02-12T17:51:58.708Z,101290.12
2019-02-12T17:54:27.180Z,101287.78
2019-02-12T17:56:55.639Z,101289.45
2019-02-12T17:59:24.116Z,101296.20
2019-02-12T18:01:52.585Z,101291.86
2019-02-12T18:04:21.002Z,101297.57
2019-02-12T18:06:49.228Z,101295.13
2019-02-12T18:09:17.483Z,101293.51
2019-02-12T18:11:45.725Z,101293.23
2019-02-12T18:14:13.965Z,101294.20
2019-02-12T18:16:42.205Z,101296.61
2019-02-12T18:19:10.572Z,101279.00
2019-02-12T18:21:39.031Z,101298.05
2019-02-12T18:24:07.485Z,101292.10
2019-02-12T18:26:35.872Z,101299.00
2019-02-12T18:29:04.122Z,101302.78
2019-02-12T18:31:32.351Z,101299.80
2019-02-12T18:34:00.614Z,101299.80
2019-02-12T18:36:28.841Z,101295.72
2019-02-12T18:38:57.318Z,101307.59
2019-02-12T18:41:25.569Z,101275.02
2019-02-12T18:43:54.056Z,101275.02
2019-02-12T18:46:22.297Z,101309.77
2019-02-12T18:48:50.539Z,101306.56
2019-02-12T18:51:18.777Z,101297.48
2019-02-12T18:53:47.247Z,101295.78
2019-02-12T18:56:15.826Z,101295.78
2019-02-12T18:58:44.310Z,101310.92
2019-02-12T19:01:12.556Z,101294.50
2019-02-12T19:03:41.065Z,101315.97
2019-02-12T19:06:09.308Z,101315.97
2019-02-12T19:08:37.547Z,101324.48
2019-02-12T19:11:06.010Z,101318.43
2019-02-12T19:13:34.482Z,101318.43
2019-02-12T19:16:02.722Z,101316.91
2019-02-12T19:18:31.238Z,101314.45
2019-02-12T19:20:59.478Z,101273.38
2019-02-12T19:23:27.794Z,101273.38
2019-02-12T19:25:56.031Z,101298.97
2019-02-12T19:28:24.516Z,101298.97
2019-02-12T19:30:52.763Z,101300.19
2019-02-12T19:33:21.040Z,101301.30
2019-02-12T19:35:49.247Z,101305.59
2019-02-12T19:38:17.484Z,101303.41
2019-02-12T19:40:45.727Z,101293.76
2019-02-12T19:43:15.458Z,101317.52
2019-02-12T19:45:44.016Z,101298.48
2019-02-12T19:48:12.267Z,101298.48
2019-02-12T19:50:40.508Z,101303.81
2019-02-12T19:53:08.973Z,101299.92
2019-02-12T19:55:37.224Z,101314.59
2019-02-12T19:58:05.690Z,101314.59
2019-02-12T20:00:34.168Z,101314.27
2019-02-12T20:03:02.642Z,101315.92
2019-02-12T20:05:30.899Z,101315.92
2019-02-12T20:07:59.134Z,101312.14
2019-02-12T20:10:27.377Z,101312.14
2019-02-12T20:12:55.611Z,101304.80
2019-02-12T20:15:23.857Z,101301.58
2019-02-12T20:17:52.097Z,101309.67
2019-02-12T20:20:20.382Z,101310.90
2019-02-12T20:22:48.620Z,101303.78
2019-02-12T20:25:16.867Z,101304.68
2019-02-12T20:27:45.340Z,101304.68
2019-02-12T20:30:15.033Z,101325.73
2019-02-12T20:32:43.254Z,101322.14
2019-02-12T20:35:13.344Z,101313.14
2019-02-12T20:37:41.585Z,101317.41
2019-02-12T20:40:11.872Z,101318.19
2019-02-12T20:42:40.105Z,101329.19
2019-02-12T20:45:11.547Z,101329.19
2019-02-12T20:47:39.780Z,101318.44
2019-02-12T20:50:10.458Z,101322.32
2019-02-12T20:52:38.708Z,101315.20
2019-02-12T20:55:08.092Z,101322.41
2019-02-12T20:57:36.329Z,101317.38
2019-02-12T21:00:10.490Z,101325.39
2019-02-12T21:02:38.739Z,101325.98
2019-02-12T21:05:09.521Z,101329.87
2019-02-12T21:07:37.991Z,101335.92
2019-02-12T21:10:09.400Z,101335.34
2019-02-12T21:12:37.641Z,101334.28
2019-02-12T21:15:09.289Z,101339.00
2019-02-12T21:17:37.543Z,101343.72
2019-02-12T21:20:08.505Z,101335.49
2019-02-12T21:22:36.754Z,101332.58
2019-02-12T21:25:07.729Z,101327.64
2019-02-12T21:27:35.975Z,101330.41
2019-02-12T21:30:06.913Z,101324.63
2019-02-12T21:32:35.477Z,101324.63
2019-02-12T21:35:04.538Z,101319.92
2019-02-12T21:37:33.066Z,101327.31
2019-02-12T21:40:01.531Z,101332.36
2019-02-12T21:42:29.775Z,101343.05
2019-02-12T21:44:58.248Z,101341.36
2019-02-12T21:47:26.489Z,101342.42
2019-02-12T21:49:54.734Z,101340.62
2019-02-12T21:52:23.224Z,101333.89
2019-02-12T21:54:51.692Z,101339.41
2019-02-12T21:57:20.169Z,101341.42
2019-02-12T21:59:48.636Z,101335.16
2019-02-12T22:02:16.884Z,101344.33
2019-02-12T22:04:45.121Z,101336.17
2019-02-12T22:07:13.363Z,101328.55
2019-02-12T22:09:41.598Z,101336.42
2019-02-12T22:12:09.842Z,101342.78
2019-02-12T22:14:38.069Z,101337.53
2019-02-12T22:17:06.541Z,101342.99
2019-02-12T22:19:35.011Z,101343.36
2019-02-12T22:22:03.492Z,101337.96
2019-02-12T22:24:31.734Z,101344.74
2019-02-12T22:26:59.980Z,101344.69
2019-02-12T22:29:28.218Z,101347.44
2019-02-12T22:31:56.457Z,101343.68
2019-02-12T22:34:24.698Z,101339.28
2019-02-12T22:36:53.170Z,101319.84
2019-02-12T22:39:21.409Z,101333.25
2019-02-12T22:41:49.657Z,101335.00
2019-02-12T22:44:17.888Z,101341.81
2019-02-12T22:46:46.463Z,101343.23
2019-02-12T22:49:14.702Z,101349.30
2019-02-12T22:51:42.953Z,101352.42
2019-02-12T22:54:11.194Z,101353.38
2019-02-12T22:56:39.779Z,101351.94
2019-02-12T22:59:08.022Z,101348.92
2019-02-12T23:01:37.494Z,101349.58
2019-02-12T23:04:05.737Z,101346.34
2019-02-12T23:06:33.981Z,101353.59
2019-02-12T23:09:02.696Z,101371.01
2019-02-12T23:11:31.278Z,101369.20
2019-02-12T23:13:59.521Z,101369.05
2019-02-12T23:16:27.763Z,101375.44
2019-02-12T23:18:56.005Z,101364.59
2019-02-12T23:21:24.248Z,101353.69
2019-02-12T23:23:52.494Z,101357.83
2019-02-12T23:26:20.730Z,101357.03
2019-02-12T23:28:48.973Z,101354.82
2019-02-12T23:31:17.210Z,101355.59
2019-02-12T23:33:45.452Z,101351.36
2019-02-12T23:36:13.689Z,101349.41
2019-02-12T23:38:41.929Z,101359.37
2019-02-12T23:41:10.218Z,101360.23
2019-02-12T23:43:38.402Z,101363.83
2019-02-12T23:46:06.637Z,101360.89
2019-02-12T23:48:34.876Z,101358.98
2019-02-12T23:51:03.115Z,101357.92
2019-02-12T23:53:31.355Z,101369.11
2019-02-12T23:55:59.827Z,101368.42
2019-02-12T23:58:28.066Z,101358.26
